Terminal Aerodrome Forecast
Issued by NWS

Home | Current Version | Previous Version | Text Only | Print | Product List | Glossary On
Versions: 1 2 3 4 5 6 7 8 9 10 11 12 13 14 15 16 17 18 19 20 21 22
000
FTUS42 KMLB 182327
TAFSFB
TAF
KSFB 182327Z 1900/1924 28008KT P6SM FEW040 BKN250
     FM190200 18003KT P6SM BKN250
     FM191400 21010KT P6SM SCT030 BKN250
     FM191800 25009KT P6SM VCTS SCT040CB BKN250=

USA.gov is the U.S. government's official web portal to all federal, state and local government web resources and services.